Terminal Aerodrome Forecast
Issued by NWS Northern Indiana

Home | Current Version | Previous Version | Text Only | Print | Product List | Glossary Off
Versions: 1 2 3 4 5 6 7 8 9 10 11 12 13 14 15 16 17 18 19 20 21

000
FTUS43 KIWX 030739 AAA
TAFFWA
TAF AMD
KFWA 030739Z 0308/0406 05005KT P6SM SCT004 OVC020
      TEMPO 0308/0310 2SM -DZ BR BKN008 OVC012
     FM031500 26007KT P6SM SCT020 BKN040=

USA.gov is the U.S. government's official web portal to all federal, state and local government web resources and services.